Terminal Aerodrome Forecast
Issued by NWS

Current Version | Previous Version | Text Only | Print | Product List | Glossary Off
Versions: 1 2 3 4 5 6 7 8 9 10 11 12 13 14

795
FTUS41 KPBZ 261120
TAFMGW
TAF
KMGW 261120Z 2612/2712 22003KT P6SM SKC
     FM261900 25009KT P6SM BKN090
     FM270200 24004KT P6SM SCT250
     FM270800 VRB05KT P6SM BKN060=

USA.gov is the U.S. government's official web portal to all federal, state and local government web resources and services.